createdAt,value
2022-10-29T00:02:08.570Z,20.05
2022-10-29T00:04:34.842Z,21.48
2022-10-29T00:07:01.107Z,16.20
2022-10-29T00:09:27.357Z,23.42
2022-10-29T00:11:53.644Z,27.75
2022-10-29T00:14:19.927Z,20.33
2022-10-29T00:16:46.207Z,18.30
2022-10-29T00:19:12.460Z,25.77
2022-10-29T00:21:40.369Z,25.08
2022-10-29T00:24:06.914Z,20.05
2022-10-29T00:26:33.564Z,20.65
2022-10-29T00:28:59.898Z,19.60
2022-10-29T00:31:26.358Z,19.88
2022-10-29T00:33:55.683Z,19.17
2022-10-29T00:36:23.350Z,20.42
2022-10-29T00:38:50.040Z,17.83
2022-10-29T00:41:20.531Z,18.52
2022-10-29T00:43:48.086Z,15.25
2022-10-29T00:46:18.060Z,20.67
2022-10-29T00:48:46.314Z,15.20
2022-10-29T00:51:13.847Z,19.02
2022-10-29T00:53:43.216Z,23.83
2022-10-29T00:56:09.911Z,18.65
2022-10-29T00:58:36.186Z,28.23
2022-10-29T01:01:02.539Z,28.30
2022-10-29T01:03:28.788Z,29.00
2022-10-29T01:05:55.280Z,27.45
2022-10-29T01:08:22.011Z,19.67
2022-10-29T01:10:59.965Z,21.35
2022-10-29T01:13:36.415Z,16.65
2022-10-29T01:16:11.040Z,24.65
2022-10-29T01:19:00.468Z,17.27
2022-10-29T01:21:34.472Z,27.98
2022-10-29T01:24:00.670Z,24.45
2022-10-29T01:26:39.196Z,22.05
2022-10-29T01:29:17.551Z,22.88
2022-10-29T01:31:43.780Z,24.13
2022-10-29T01:34:16.112Z,14.82
2022-10-29T01:37:01.950Z,15.55
2022-10-29T01:39:31.199Z,16.08
2022-10-29T01:42:04.864Z,19.55
2022-10-29T01:44:40.124Z,18.67
2022-10-29T01:47:12.373Z,24.67
2022-10-29T01:49:40.062Z,19.67
2022-10-29T01:52:07.770Z,16.50
2022-10-29T01:54:34.204Z,19.58
2022-10-29T01:57:00.841Z,20.70
2022-10-29T01:59:35.908Z,16.20
2022-10-29T02:02:18.288Z,19.70
2022-10-29T02:04:50.224Z,17.88
2022-10-29T02:07:19.268Z,18.15
2022-10-29T02:09:54.692Z,18.42
2022-10-29T02:12:27.180Z,17.98
2022-10-29T02:15:22.800Z,19.40
2022-10-29T02:17:49.200Z,21.75
2022-10-29T02:20:16.128Z,19.02
2022-10-29T02:25:09.291Z,24.88
2022-10-29T02:30:01.830Z,20.10
2022-10-29T02:32:28.132Z,15.27
2022-10-29T02:34:54.515Z,22.55
2022-10-29T02:37:20.777Z,16.48
2022-10-29T02:39:47.033Z,21.30
2022-10-29T02:42:13.348Z,21.20
2022-10-29T02:44:39.634Z,19.60
2022-10-29T02:47:05.887Z,21.27
2022-10-29T02:49:32.164Z,21.95
2022-10-29T02:51:58.465Z,24.92
2022-10-29T02:54:24.718Z,13.80
2022-10-29T02:56:50.991Z,19.10
2022-10-29T02:59:17.237Z,20.70
2022-10-29T03:01:43.631Z,14.93
2022-10-29T03:04:10.629Z,17.23
2022-10-29T03:06:37.232Z,14.60
2022-10-29T03:09:03.864Z,16.13
2022-10-29T03:11:30.319Z,15.15
2022-10-29T03:13:56.639Z,18.85
2022-10-29T03:16:22.930Z,22.92
2022-10-29T03:18:49.251Z,15.13
2022-10-29T03:21:15.455Z,16.38
2022-10-29T03:23:41.694Z,18.33
2022-10-29T03:26:08.892Z,20.88
2022-10-29T03:28:35.169Z,22.38
2022-10-29T03:31:01.510Z,16.73
2022-10-29T03:33:28.200Z,21.15
2022-10-29T03:35:58.370Z,20.88
2022-10-29T03:38:24.752Z,18.23
2022-10-29T03:40:51.090Z,21.33
2022-10-29T03:43:17.816Z,16.33
2022-10-29T03:45:44.055Z,18.05
2022-10-29T03:48:10.311Z,16.52
2022-10-29T03:50:36.520Z,16.20
2022-10-29T03:53:02.743Z,16.33
2022-10-29T03:55:29.182Z,18.75
2022-10-29T03:57:56.028Z,17.17
2022-10-29T04:02:48.672Z,24.17
2022-10-29T04:05:14.976Z,18.42
2022-10-29T04:07:41.199Z,26.30
2022-10-29T04:10:07.567Z,27.02
2022-10-29T04:12:33.792Z,18.27
2022-10-29T04:15:00.043Z,25.17
2022-10-29T04:17:26.277Z,17.88
2022-10-29T04:19:52.505Z,18.88
2022-10-29T04:30:39.817Z,16.38
2022-10-29T04:33:06.053Z,24.65
2022-10-29T04:35:32.283Z,13.68
2022-10-29T04:37:58.526Z,21.73
2022-10-29T04:40:25.030Z,18.30
2022-10-29T04:42:51.346Z,18.42
2022-10-29T04:45:17.733Z,18.58
2022-10-29T04:47:43.983Z,19.10
2022-10-29T04:50:10.280Z,23.88
2022-10-29T04:52:36.498Z,14.90
2022-10-29T04:55:02.793Z,18.25
2022-10-29T04:57:29.029Z,13.65
2022-10-29T04:59:55.250Z,19.00
2022-10-29T05:02:21.471Z,20.92
2022-10-29T05:04:47.726Z,20.80
2022-10-29T05:07:13.938Z,11.98
2022-10-29T05:09:40.173Z,14.18
2022-10-29T05:12:07.068Z,27.42
2022-10-29T05:14:33.295Z,29.33
2022-10-29T05:16:59.601Z,20.08
2022-10-29T05:19:25.858Z,19.95
2022-10-29T05:21:52.095Z,16.67
2022-10-29T05:24:18.319Z,30.58
2022-10-29T05:26:44.557Z,19.25
2022-10-29T05:29:10.787Z,19.10
2022-10-29T05:31:37.020Z,21.10
2022-10-29T05:34:03.268Z,20.35
2022-10-29T05:36:29.502Z,19.42
2022-10-29T05:38:55.807Z,17.15
2022-10-29T05:41:22.151Z,24.95
2022-10-29T05:43:49.120Z,26.52
2022-10-29T05:48:42.840Z,23.02
2022-10-29T05:51:09.714Z,24.60
2022-10-29T05:53:36.398Z,24.25
2022-10-29T05:56:02.620Z,15.93
2022-10-29T05:58:28.854Z,24.02
2022-10-29T06:00:55.077Z,19.13
2022-10-29T06:03:22.258Z,22.38
2022-10-29T06:05:49.149Z,17.83
2022-10-29T06:08:15.516Z,20.42
2022-10-29T06:10:41.802Z,22.65
2022-10-29T06:13:16.126Z,20.13
2022-10-29T06:15:42.415Z,14.88
2022-10-29T06:18:08.766Z,20.15
2022-10-29T06:20:35.309Z,20.05
2022-10-29T06:23:01.555Z,17.38
2022-10-29T06:25:28.004Z,16.85
2022-10-29T06:28:01.374Z,18.35
2022-10-29T06:30:27.993Z,18.52
2022-10-29T06:32:54.498Z,24.80
2022-10-29T06:35:21.009Z,37.25
2022-10-29T06:37:47.387Z,26.25
2022-10-29T06:40:13.725Z,27.02
2022-10-29T06:42:39.975Z,31.50
2022-10-29T06:45:06.581Z,19.45
2022-10-29T06:47:38.265Z,20.88
2022-10-29T06:50:04.696Z,24.90
2022-10-29T06:52:31.125Z,22.10
2022-10-29T06:54:57.442Z,40.65
2022-10-29T06:57:24.791Z,25.92
2022-10-29T06:59:51.042Z,21.13
2022-10-29T07:02:18.737Z,23.98
2022-10-29T07:04:44.974Z,18.70
2022-10-29T07:07:11.420Z,26.30
2022-10-29T07:09:37.784Z,21.20
2022-10-29T07:12:04.022Z,16.30
2022-10-29T07:14:30.297Z,28.80
2022-10-29T07:16:56.544Z,26.70
2022-10-29T07:19:22.805Z,18.58
2022-10-29T07:21:49.061Z,25.83
2022-10-29T07:24:17.727Z,28.98
2022-10-29T07:26:44.150Z,23.58
2022-10-29T07:29:10.701Z,30.75
2022-10-29T07:31:37.158Z,38.90
2022-10-29T07:34:03.450Z,17.58
2022-10-29T07:36:30.145Z,25.92
2022-10-29T07:38:56.429Z,32.85
2022-10-29T07:41:22.704Z,28.55
2022-10-29T07:43:49.053Z,21.08
2022-10-29T07:46:15.335Z,23.42
2022-10-29T07:48:41.695Z,28.23
2022-10-29T07:51:07.946Z,20.92
2022-10-29T07:53:34.220Z,17.25
2022-10-29T07:56:00.503Z,12.48
2022-10-29T07:58:26.811Z,20.48
2022-10-29T08:00:53.443Z,14.98
2022-10-29T08:03:19.807Z,16.30
2022-10-29T08:05:55.169Z,37.08
2022-10-29T08:08:22.979Z,22.33
2022-10-29T08:10:49.227Z,15.77
2022-10-29T08:13:15.462Z,17.13
2022-10-29T08:15:41.787Z,21.73
2022-10-29T08:18:14.080Z,28.90
2022-10-29T08:20:40.338Z,18.33
2022-10-29T08:23:06.568Z,22.05
2022-10-29T08:25:32.828Z,20.02
2022-10-29T08:28:03.036Z,22.35
2022-10-29T08:30:29.954Z,23.67
2022-10-29T08:35:22.750Z,25.15
2022-10-29T08:37:49.018Z,17.92
2022-10-29T08:40:23.926Z,22.58
2022-10-29T08:42:53.443Z,26.27
2022-10-29T08:45:25.887Z,17.92
2022-10-29T08:47:52.096Z,29.15
2022-10-29T08:50:27.654Z,37.13
2022-10-29T08:53:21.877Z,23.40
2022-10-29T08:55:41.024Z,21.40
2022-10-29T08:58:26.146Z,26.48
2022-10-29T09:00:54.268Z,20.70
2022-10-29T09:03:20.582Z,17.75
2022-10-29T09:05:46.799Z,21.50
2022-10-29T09:08:37.912Z,23.73
2022-10-29T09:11:24.414Z,22.67
2022-10-29T09:13:59.467Z,17.58
2022-10-29T09:16:43.479Z,21.98
2022-10-29T09:19:28.476Z,36.45
2022-10-29T09:22:10.266Z,23.02
2022-10-29T09:24:59.518Z,16.27
2022-10-29T09:27:46.065Z,26.65
2022-10-29T09:30:16.958Z,20.50
2022-10-29T09:32:53.757Z,18.58
2022-10-29T09:35:21.744Z,15.05
2022-10-29T09:37:57.033Z,19.50
2022-10-29T09:40:29.599Z,16.95
2022-10-29T09:42:58.082Z,21.95
2022-10-29T09:45:30.180Z,16.25
2022-10-29T09:48:02.507Z,12.05
2022-10-29T09:50:32.924Z,14.55
2022-10-29T09:52:59.653Z,20.23
2022-10-29T09:55:27.618Z,14.30
2022-10-29T09:57:54.908Z,19.25
2022-10-29T10:00:25.784Z,18.25
2022-10-29T10:03:01.920Z,14.95
2022-10-29T10:05:29.738Z,24.27
2022-10-29T10:08:22.145Z,19.27
2022-10-29T10:10:53.001Z,20.77
2022-10-29T10:13:21.886Z,29.20
2022-10-29T10:15:53.838Z,23.00
2022-10-29T10:18:21.582Z,19.30
2022-10-29T10:20:59.784Z,17.00
2022-10-29T10:23:44.449Z,18.40
2022-10-29T10:26:25.895Z,26.63
2022-10-29T10:29:11.895Z,16.83
2022-10-29T10:31:38.924Z,24.17
2022-10-29T10:34:17.334Z,13.52
2022-10-29T10:36:46.335Z,22.25
2022-10-29T10:39:26.555Z,19.13
2022-10-29T10:41:53.522Z,17.80
2022-10-29T10:44:21.539Z,11.98
2022-10-29T10:46:48.921Z,18.10
2022-10-29T10:49:16.844Z,18.95
2022-10-29T10:51:44.851Z,14.05
2022-10-29T10:54:43.642Z,12.15
2022-10-29T10:57:12.679Z,10.77
2022-10-29T10:59:57.115Z,10.30
2022-10-29T11:02:27.084Z,13.80
2022-10-29T11:05:00.866Z,15.95
2022-10-29T11:07:33.179Z,17.75
2022-10-29T11:10:00.484Z,11.68
2022-10-29T11:12:36.796Z,16.63
2022-10-29T11:15:11.946Z,13.13
2022-10-29T11:17:50.046Z,16.13
2022-10-29T11:20:23.118Z,32.47
2022-10-29T11:23:01.276Z,10.50
2022-10-29T11:25:31.883Z,14.15
2022-10-29T11:28:15.128Z,15.00
2022-10-29T11:30:48.564Z,16.08
2022-10-29T11:33:37.448Z,8.85
2022-10-29T11:36:09.359Z,11.10
2022-10-29T11:38:43.829Z,14.20
2022-10-29T11:41:12.934Z,15.02
2022-10-29T11:43:39.452Z,10.40
2022-10-29T11:46:05.684Z,10.70
2022-10-29T11:51:06.597Z,18.45
2022-10-29T11:53:32.836Z,18.88
2022-10-29T11:58:38.005Z,14.73
2022-10-29T12:01:09.599Z,19.23
2022-10-29T12:03:56.278Z,16.48
2022-10-29T12:06:30.208Z,15.40
2022-10-29T12:08:59.484Z,11.80
2022-10-29T12:11:50.223Z,10.82
2022-10-29T12:14:21.076Z,13.25
2022-10-29T12:16:59.247Z,16.55
2022-10-29T12:19:37.390Z,16.20
2022-10-29T12:22:29.565Z,12.00
2022-10-29T12:25:04.513Z,13.52
2022-10-29T12:27:35.880Z,16.52
2022-10-29T12:30:06.288Z,13.30
2022-10-29T12:32:51.387Z,20.83
2022-10-29T12:35:33.778Z,9.93
2022-10-29T12:38:13.187Z,16.42
2022-10-29T12:40:41.787Z,15.20
2022-10-29T12:43:11.396Z,12.27
2022-10-29T12:46:14.420Z,15.88
2022-10-29T12:48:38.797Z,18.17
2022-10-29T12:51:37.544Z,11.13
2022-10-29T12:54:14.154Z,17.13
2022-10-29T12:56:40.583Z,9.48
2022-10-29T12:59:25.257Z,17.15
2022-10-29T13:04:38.292Z,17.70
2022-10-29T13:07:05.811Z,17.55
2022-10-29T13:09:32.077Z,16.48
2022-10-29T13:11:59.756Z,17.77
2022-10-29T13:14:32.035Z,15.55
2022-10-29T13:16:58.695Z,17.77
2022-10-29T13:21:55.048Z,20.02
2022-10-29T13:24:21.546Z,13.18
2022-10-29T13:26:53.338Z,17.17
2022-10-29T13:29:38.384Z,16.30
2022-10-29T13:32:05.735Z,21.40
2022-10-29T13:34:51.692Z,15.13
2022-10-29T13:37:36.571Z,27.83
2022-10-29T13:40:21.555Z,22.02
2022-10-29T13:43:01.071Z,14.18
2022-10-29T13:45:27.815Z,18.08
2022-10-29T13:47:58.847Z,19.63
2022-10-29T13:50:25.371Z,18.50
2022-10-29T13:52:53.335Z,16.95
2022-10-29T13:55:20.500Z,23.58
2022-10-29T13:57:54.328Z,22.98
2022-10-29T14:00:21.358Z,11.50
2022-10-29T14:02:54.479Z,16.25
2022-10-29T14:05:23.365Z,13.48
2022-10-29T14:07:57.148Z,17.30
2022-10-29T14:13:05.789Z,17.75
2022-10-29T14:15:32.150Z,13.68
2022-10-29T14:17:58.393Z,17.42
2022-10-29T14:20:27.266Z,10.43
2022-10-29T14:22:53.973Z,12.10
2022-10-29T14:27:46.929Z,13.77
2022-10-29T14:30:14.272Z,16.52
2022-10-29T14:32:40.698Z,22.15
2022-10-29T14:35:07.172Z,20.92
2022-10-29T14:37:35.949Z,48.22
2022-10-29T14:40:05.228Z,17.02
2022-10-29T14:42:33.194Z,20.50
2022-10-29T14:45:01.438Z,12.85
2022-10-29T14:47:33.474Z,21.05
2022-10-29T14:50:02.655Z,41.92
2022-10-29T14:52:38.201Z,17.88
2022-10-29T14:55:09.080Z,26.75
2022-10-29T14:57:40.204Z,25.67
2022-10-29T15:00:06.752Z,18.65
2022-10-29T15:02:39.244Z,22.73
2022-10-29T15:05:20.392Z,18.63
2022-10-29T15:07:46.613Z,17.75
2022-10-29T15:10:20.373Z,16.92
2022-10-29T15:12:47.111Z,21.65
2022-10-29T15:15:28.035Z,16.23
2022-10-29T15:17:57.451Z,15.15
2022-10-29T15:20:26.087Z,14.18
2022-10-29T15:22:53.830Z,15.80
2022-10-29T15:25:23.911Z,17.60
2022-10-29T15:27:51.458Z,16.88
2022-10-29T15:30:18.962Z,23.23
2022-10-29T15:32:45.470Z,21.77
2022-10-29T15:35:18.048Z,21.23
2022-10-29T15:37:45.983Z,18.55
2022-10-29T15:40:16.827Z,14.65
2022-10-29T15:42:45.220Z,31.10
2022-10-29T15:45:14.664Z,13.85
2022-10-29T15:47:48.387Z,16.38
2022-10-29T15:50:23.692Z,15.05
2022-10-29T15:52:57.253Z,13.52
2022-10-29T15:55:28.653Z,22.92
2022-10-29T15:58:05.868Z,20.83
2022-10-29T16:00:32.749Z,17.63
2022-10-29T16:05:25.504Z,19.77
2022-10-29T16:07:51.923Z,16.70
2022-10-29T16:10:19.529Z,14.48
2022-10-29T16:12:46.171Z,14.65
2022-10-29T16:15:13.247Z,15.48
2022-10-29T16:17:39.557Z,18.48
2022-10-29T16:20:06.322Z,20.17
2022-10-29T16:22:32.567Z,15.00
2022-10-29T16:24:58.990Z,16.40
2022-10-29T16:27:25.283Z,14.40
2022-10-29T16:29:51.671Z,13.60
2022-10-29T16:32:19.231Z,21.58
2022-10-29T16:34:45.528Z,61.22
2022-10-29T16:37:13.459Z,20.42
2022-10-29T16:39:40.058Z,28.60
2022-10-29T16:42:06.355Z,25.85
2022-10-29T16:44:32.608Z,17.33
2022-10-29T16:47:00.552Z,12.32
2022-10-29T16:49:26.805Z,21.38
2022-10-29T16:51:53.049Z,21.00
2022-10-29T16:54:19.280Z,24.30
2022-10-29T16:56:46.325Z,28.00
2022-10-29T16:59:12.576Z,29.60
2022-10-29T17:01:38.840Z,19.90
2022-10-29T17:04:05.259Z,27.48
2022-10-29T17:06:31.590Z,32.88
2022-10-29T17:08:57.837Z,28.02
2022-10-29T17:11:24.114Z,23.17
2022-10-29T17:13:50.444Z,18.83
2022-10-29T17:16:18.858Z,25.38
2022-10-29T17:18:50.465Z,23.85
2022-10-29T17:21:16.752Z,19.00
2022-10-29T17:23:43.176Z,17.48
2022-10-29T17:26:09.474Z,30.58
2022-10-29T17:28:38.113Z,25.85
2022-10-29T17:31:05.060Z,14.85
2022-10-29T17:36:04.684Z,18.60
2022-10-29T17:38:31.053Z,25.40
2022-10-29T17:40:57.340Z,24.80
2022-10-29T17:43:23.668Z,18.20
2022-10-29T17:45:50.669Z,23.40
2022-10-29T17:48:19.717Z,18.70
2022-10-29T17:50:57.803Z,21.35
2022-10-29T17:53:24.431Z,28.23
2022-10-29T17:55:51.123Z,17.42
2022-10-29T17:58:18.264Z,27.48
2022-10-29T18:00:44.842Z,24.13
2022-10-29T18:03:11.068Z,19.77
2022-10-29T18:05:37.499Z,20.38
2022-10-29T18:08:03.805Z,25.42
2022-10-29T18:10:31.799Z,26.58
2022-10-29T18:12:58.113Z,19.38
2022-10-29T18:15:24.388Z,32.20
2022-10-29T18:17:50.622Z,27.15
2022-10-29T18:20:17.148Z,31.95
2022-10-29T18:22:44.120Z,28.40
2022-10-29T18:27:36.628Z,27.75
2022-10-29T18:30:03.503Z,23.17
2022-10-29T18:34:56.846Z,26.77
2022-10-29T18:37:23.128Z,26.05
2022-10-29T18:39:49.401Z,29.67
2022-10-29T18:42:15.631Z,30.13
2022-10-29T18:44:41.909Z,27.70
2022-10-29T18:47:08.177Z,24.00
2022-10-29T18:49:34.464Z,33.30
2022-10-29T18:52:00.722Z,24.83
2022-10-29T18:54:27.056Z,39.65
2022-10-29T18:56:53.376Z,32.58
2022-10-29T18:59:19.754Z,32.20
2022-10-29T19:01:46.092Z,35.58
2022-10-29T19:04:13.824Z,26.38
2022-10-29T19:06:40.441Z,29.52
2022-10-29T19:09:07.960Z,37.38
2022-10-29T19:11:34.526Z,27.85
2022-10-29T19:14:02.130Z,38.50
2022-10-29T19:16:28.923Z,56.10
2022-10-29T19:18:56.171Z,51.25
2022-10-29T19:21:22.576Z,47.60
2022-10-29T19:23:53.091Z,29.10
2022-10-29T19:26:19.364Z,29.83
2022-10-29T19:28:46.302Z,22.25
2022-10-29T19:33:39.056Z,22.20
2022-10-29T19:36:06.541Z,23.25
2022-10-29T19:38:32.998Z,35.20
2022-10-29T19:40:59.390Z,21.35
2022-10-29T19:43:26.148Z,30.13
2022-10-29T19:45:52.839Z,27.55
2022-10-29T19:48:19.145Z,41.35
2022-10-29T19:50:45.784Z,70.70
2022-10-29T19:53:12.768Z,67.50
2022-10-29T19:55:39.926Z,85.40
2022-10-29T19:58:06.169Z,80.38
2022-10-29T20:00:32.392Z,56.45
2022-10-29T20:02:59.111Z,51.35
2022-10-29T20:05:25.830Z,75.07
2022-10-29T20:07:52.123Z,46.20
2022-10-29T20:10:18.662Z,31.58
2022-10-29T20:12:44.932Z,27.55
2022-10-29T20:15:12.107Z,26.38
2022-10-29T20:17:38.562Z,27.63
2022-10-29T20:20:05.644Z,28.27
2022-10-29T20:22:31.894Z,21.60
2022-10-29T20:24:58.355Z,29.20
2022-10-29T20:27:24.572Z,26.60
2022-10-29T20:29:50.784Z,21.60
2022-10-29T20:32:17.231Z,31.33
2022-10-29T20:34:43.512Z,18.55
2022-10-29T20:37:09.736Z,20.33
2022-10-29T20:39:35.966Z,22.10
2022-10-29T20:42:02.225Z,16.92
2022-10-29T20:44:28.443Z,29.00
2022-10-29T20:46:54.685Z,23.27
2022-10-29T20:49:20.903Z,21.70
2022-10-29T20:51:47.121Z,20.48
2022-10-29T20:54:13.330Z,23.25
2022-10-29T20:56:39.588Z,20.58
2022-10-29T20:59:05.860Z,23.13
2022-10-29T21:01:32.150Z,23.73
2022-10-29T21:03:58.618Z,30.33
2022-10-29T21:06:24.940Z,26.80
2022-10-29T21:08:51.986Z,25.30
2022-10-29T21:11:18.739Z,19.77
2022-10-29T21:13:45.358Z,23.10
2022-10-29T21:16:24.696Z,22.52
2022-10-29T21:18:52.051Z,19.05
2022-10-29T21:21:18.862Z,18.17
2022-10-29T21:23:45.288Z,21.30
2022-10-29T21:26:12.676Z,22.23
2022-10-29T21:28:38.947Z,24.40
2022-10-29T21:31:05.464Z,33.08
2022-10-29T21:33:31.695Z,36.28
2022-10-29T21:35:58.275Z,29.88
2022-10-29T21:38:25.247Z,30.48
2022-10-29T21:40:51.974Z,62.15
2022-10-29T21:43:18.242Z,57.85
2022-10-29T21:45:45.220Z,26.80
2022-10-29T21:50:37.822Z,26.05
2022-10-29T21:53:04.941Z,30.42
2022-10-29T21:55:31.546Z,22.75
2022-10-29T21:57:58.141Z,34.30
2022-10-29T22:02:50.969Z,29.48
2022-10-29T22:05:17.332Z,23.15
2022-10-29T22:07:43.856Z,26.90
2022-10-29T22:10:10.239Z,20.23
2022-10-29T22:12:36.545Z,22.85
2022-10-29T22:15:03.962Z,18.75
2022-10-29T22:17:30.735Z,27.85
2022-10-29T22:19:57.306Z,31.38
2022-10-29T22:22:23.634Z,30.00
2022-10-29T22:24:50.129Z,24.80
2022-10-29T22:27:16.382Z,28.17
2022-10-29T22:29:42.629Z,35.22
2022-10-29T22:32:08.897Z,20.85
2022-10-29T22:34:35.198Z,30.23
2022-10-29T22:37:01.422Z,27.02
2022-10-29T22:39:27.692Z,27.80
2022-10-29T22:41:53.919Z,27.88
2022-10-29T22:44:20.161Z,37.00
2022-10-29T22:46:46.376Z,26.27
2022-10-29T22:49:12.635Z,24.42
2022-10-29T22:51:39.131Z,29.17
2022-10-29T22:54:05.488Z,30.75
2022-10-29T22:56:33.161Z,28.75
2022-10-29T22:58:59.470Z,24.73
2022-10-29T23:01:27.108Z,30.58
2022-10-29T23:03:53.639Z,26.45
2022-10-29T23:06:21.169Z,20.70
2022-10-29T23:08:47.879Z,24.25
2022-10-29T23:11:19.078Z,23.42
2022-10-29T23:13:46.620Z,31.90
2022-10-29T23:16:13.029Z,31.20
2022-10-29T23:18:39.325Z,29.25
2022-10-29T23:21:06.143Z,26.55
2022-10-29T23:23:32.819Z,21.60
2022-10-29T23:26:03.655Z,22.77
2022-10-29T23:28:31.086Z,29.58
2022-10-29T23:30:57.882Z,27.27
2022-10-29T23:33:24.305Z,28.38
2022-10-29T23:35:51.108Z,34.80
2022-10-29T23:38:17.671Z,26.27
2022-10-29T23:40:44.512Z,22.67
2022-10-29T23:43:10.866Z,21.67
2022-10-29T23:45:37.275Z,27.95
2022-10-29T23:48:03.645Z,34.38
2022-10-29T23:50:29.927Z,27.73
2022-10-29T23:52:56.525Z,30.05
2022-10-29T23:55:23.047Z,21.73
2022-10-29T23:57:49.300Z,27.77
